sensor_id;sensor_type;location;lat;lon;timestamp;pressure;altitude;pressure_sealevel;temperature;humidity
15604;BME280;7902;49.042;9.092;2023-08-06T00:00:41;98309.13;;;21.10;62.74
15604;BME280;7902;49.042;9.092;2023-08-06T00:03:07;98301.69;;;21.05;63.45
15604;BME280;7902;49.042;9.092;2023-08-06T00:05:33;98304.00;;;21.08;62.46
15604;BME280;7902;49.042;9.092;2023-08-06T00:07:58;98294.94;;;21.02;62.54
15604;BME280;7902;49.042;9.092;2023-08-06T00:10:24;98300.69;;;21.06;62.71
15604;BME280;7902;49.042;9.092;2023-08-06T00:12:50;98296.13;;;21.00;62.45
15604;BME280;7902;49.042;9.092;2023-08-06T00:15:16;98292.44;;;20.94;62.78
15604;BME280;7902;49.042;9.092;2023-08-06T00:17:42;98290.72;;;20.87;63.48
15604;BME280;7902;49.042;9.092;2023-08-06T00:20:08;98295.56;;;20.77;63.50
15604;BME280;7902;49.042;9.092;2023-08-06T00:22:35;98295.97;;;20.74;64.13
15604;BME280;7902;49.042;9.092;2023-08-06T00:25:02;98296.84;;;20.81;63.46
15604;BME280;7902;49.042;9.092;2023-08-06T00:27:29;98284.91;;;20.77;62.97
15604;BME280;7902;49.042;9.092;2023-08-06T00:29:55;98283.88;;;20.78;63.87
15604;BME280;7902;49.042;9.092;2023-08-06T00:32:21;98281.22;;;20.78;63.63
15604;BME280;7902;49.042;9.092;2023-08-06T00:34:47;98275.06;;;20.77;63.47
15604;BME280;7902;49.042;9.092;2023-08-06T00:37:16;98276.88;;;20.70;63.72
15604;BME280;7902;49.042;9.092;2023-08-06T00:39:42;98273.38;;;20.70;63.94
15604;BME280;7902;49.042;9.092;2023-08-06T00:42:09;98266.63;;;20.74;63.65
15604;BME280;7902;49.042;9.092;2023-08-06T00:44:36;98264.75;;;20.68;63.99
15604;BME280;7902;49.042;9.092;2023-08-06T00:47:02;98272.56;;;20.69;63.82
15604;BME280;7902;49.042;9.092;2023-08-06T00:49:28;98249.19;;;20.71;63.73
15604;BME280;7902;49.042;9.092;2023-08-06T00:51:54;98263.34;;;20.72;63.47
15604;BME280;7902;49.042;9.092;2023-08-06T00:54:20;98254.72;;;20.70;63.95
15604;BME280;7902;49.042;9.092;2023-08-06T00:56:47;98255.78;;;20.75;63.76
15604;BME280;7902;49.042;9.092;2023-08-06T00:59:13;98260.88;;;20.77;63.88
15604;BME280;7902;49.042;9.092;2023-08-06T01:01:39;98254.38;;;20.86;63.67
15604;BME280;7902;49.042;9.092;2023-08-06T01:04:05;98253.13;;;20.82;64.00
15604;BME280;7902;49.042;9.092;2023-08-06T01:06:47;98250.91;;;20.85;63.70
15604;BME280;7902;49.042;9.092;2023-08-06T01:15:07;98236.09;;;20.83;63.64
15604;BME280;7902;49.042;9.092;2023-08-06T01:17:35;98235.28;;;20.82;63.45
15604;BME280;7902;49.042;9.092;2023-08-06T01:20:02;98231.78;;;20.82;63.59
15604;BME280;7902;49.042;9.092;2023-08-06T01:22:27;98236.50;;;20.80;63.39
15604;BME280;7902;49.042;9.092;2023-08-06T01:24:54;98233.63;;;20.81;63.86
15604;BME280;7902;49.042;9.092;2023-08-06T01:27:28;98229.53;;;20.79;63.42
15604;BME280;7902;49.042;9.092;2023-08-06T01:32:44;98223.75;;;20.75;63.70
15604;BME280;7902;49.042;9.092;2023-08-06T01:35:12;98227.50;;;20.81;63.51
15604;BME280;7902;49.042;9.092;2023-08-06T01:37:40;98217.63;;;20.81;63.75
15604;BME280;7902;49.042;9.092;2023-08-06T01:40:10;98215.16;;;20.80;63.53
15604;BME280;7902;49.042;9.092;2023-08-06T01:42:36;98214.09;;;20.74;63.88
15604;BME280;7902;49.042;9.092;2023-08-06T01:45:03;98213.03;;;20.69;64.04
15604;BME280;7902;49.042;9.092;2023-08-06T01:47:28;98204.09;;;20.83;63.70
15604;BME280;7902;49.042;9.092;2023-08-06T01:49:54;98200.75;;;20.74;63.80
15604;BME280;7902;49.042;9.092;2023-08-06T01:52:20;98209.81;;;20.80;63.45
15604;BME280;7902;49.042;9.092;2023-08-06T01:54:46;98202.66;;;20.80;63.32
15604;BME280;7902;49.042;9.092;2023-08-06T01:57:12;98201.19;;;20.78;63.39
15604;BME280;7902;49.042;9.092;2023-08-06T01:59:38;98196.66;;;20.72;63.36
15604;BME280;7902;49.042;9.092;2023-08-06T02:02:04;98189.25;;;20.74;63.81
15604;BME280;7902;49.042;9.092;2023-08-06T02:04:30;98188.78;;;20.64;63.85
15604;BME280;7902;49.042;9.092;2023-08-06T02:06:56;98187.22;;;20.76;63.16
15604;BME280;7902;49.042;9.092;2023-08-06T02:09:22;98176.69;;;20.61;63.34
15604;BME280;7902;49.042;9.092;2023-08-06T02:11:47;98173.59;;;20.57;63.36
15604;BME280;7902;49.042;9.092;2023-08-06T02:14:13;98177.22;;;20.43;63.74
15604;BME280;7902;49.042;9.092;2023-08-06T02:16:39;98176.22;;;20.51;63.26
15604;BME280;7902;49.042;9.092;2023-08-06T02:19:05;98173.13;;;20.47;63.21
15604;BME280;7902;49.042;9.092;2023-08-06T02:21:31;98175.94;;;20.39;63.64
15604;BME280;7902;49.042;9.092;2023-08-06T02:23:57;98167.75;;;20.41;63.50
15604;BME280;7902;49.042;9.092;2023-08-06T02:26:23;98164.09;;;20.48;63.15
15604;BME280;7902;49.042;9.092;2023-08-06T02:28:49;98164.66;;;20.37;63.33
15604;BME280;7902;49.042;9.092;2023-08-06T02:31:15;98165.25;;;20.39;63.20
15604;BME280;7902;49.042;9.092;2023-08-06T02:33:41;98156.06;;;20.42;62.82
15604;BME280;7902;49.042;9.092;2023-08-06T02:36:06;98153.34;;;20.35;63.07
15604;BME280;7902;49.042;9.092;2023-08-06T02:38:32;98151.75;;;20.41;62.97
15604;BME280;7902;49.042;9.092;2023-08-06T02:40:59;98140.25;;;20.34;62.95
15604;BME280;7902;49.042;9.092;2023-08-06T02:43:24;98151.47;;;20.29;63.06
15604;BME280;7902;49.042;9.092;2023-08-06T02:45:50;98146.81;;;20.38;62.71
15604;BME280;7902;49.042;9.092;2023-08-06T02:48:16;98145.94;;;20.31;62.75
15604;BME280;7902;49.042;9.092;2023-08-06T02:50:43;98141.03;;;20.34;62.59
15604;BME280;7902;49.042;9.092;2023-08-06T02:53:10;98137.88;;;20.52;61.97
15604;BME280;7902;49.042;9.092;2023-08-06T02:55:36;98139.66;;;20.45;62.30
15604;BME280;7902;49.042;9.092;2023-08-06T02:58:02;98139.84;;;20.37;62.44
15604;BME280;7902;49.042;9.092;2023-08-06T03:00:28;98132.03;;;20.35;62.85
15604;BME280;7902;49.042;9.092;2023-08-06T03:02:54;98130.81;;;20.38;62.90
15604;BME280;7902;49.042;9.092;2023-08-06T03:05:20;98118.69;;;20.35;62.65
15604;BME280;7902;49.042;9.092;2023-08-06T03:07:46;98126.25;;;20.32;62.53
15604;BME280;7902;49.042;9.092;2023-08-06T03:10:12;98127.00;;;20.26;62.86
15604;BME280;7902;49.042;9.092;2023-08-06T03:12:38;98117.44;;;20.31;62.67
15604;BME280;7902;49.042;9.092;2023-08-06T03:15:05;98127.84;;;20.26;62.51
15604;BME280;7902;49.042;9.092;2023-08-06T03:17:31;98139.13;;;20.28;62.71
15604;BME280;7902;49.042;9.092;2023-08-06T03:19:57;98133.94;;;20.20;62.52
15604;BME280;7902;49.042;9.092;2023-08-06T03:22:23;98140.69;;;20.16;62.20
15604;BME280;7902;49.042;9.092;2023-08-06T03:24:50;98138.91;;;20.23;62.26
15604;BME280;7902;49.042;9.092;2023-08-06T03:27:17;98137.66;;;20.26;62.19
15604;BME280;7902;49.042;9.092;2023-08-06T03:29:42;98137.66;;;20.26;62.20
15604;BME280;7902;49.042;9.092;2023-08-06T03:32:08;98143.59;;;20.21;62.63
15604;BME280;7902;49.042;9.092;2023-08-06T03:34:34;98139.72;;;20.24;62.37
15604;BME280;7902;49.042;9.092;2023-08-06T03:37:00;98139.50;;;20.25;62.22
15604;BME280;7902;49.042;9.092;2023-08-06T03:39:26;98136.75;;;20.05;62.35
15604;BME280;7902;49.042;9.092;2023-08-06T03:41:52;98137.34;;;20.07;62.96
15604;BME280;7902;49.042;9.092;2023-08-06T03:44:18;98141.09;;;20.13;62.44
15604;BME280;7902;49.042;9.092;2023-08-06T03:46:44;98136.69;;;19.99;62.51
15604;BME280;7902;49.042;9.092;2023-08-06T03:49:10;98148.84;;;20.08;62.42
15604;BME280;7902;49.042;9.092;2023-08-06T03:51:35;98152.66;;;19.99;63.20
15604;BME280;7902;49.042;9.092;2023-08-06T03:54:01;98152.66;;;19.99;63.17
15604;BME280;7902;49.042;9.092;2023-08-06T03:56:27;98156.41;;;20.04;62.70
15604;BME280;7902;49.042;9.092;2023-08-06T03:58:53;98148.66;;;20.09;62.10
15604;BME280;7902;49.042;9.092;2023-08-06T04:01:19;98153.06;;;20.24;61.86
15604;BME280;7902;49.042;9.092;2023-08-06T04:03:45;98148.59;;;20.03;62.15
15604;BME280;7902;49.042;9.092;2023-08-06T04:06:11;98156.25;;;19.85;62.36
15604;BME280;7902;49.042;9.092;2023-08-06T04:08:37;98153.44;;;19.44;62.91
15604;BME280;7902;49.042;9.092;2023-08-06T04:11:02;98157.53;;;19.67;62.01
15604;BME280;7902;49.042;9.092;2023-08-06T04:13:29;98162.31;;;19.36;62.57
15604;BME280;7902;49.042;9.092;2023-08-06T04:15:55;98155.25;;;19.64;62.35
15604;BME280;7902;49.042;9.092;2023-08-06T04:18:21;98160.91;;;19.40;61.54
15604;BME280;7902;49.042;9.092;2023-08-06T04:20:47;98161.53;;;19.57;62.19
15604;BME280;7902;49.042;9.092;2023-08-06T04:23:15;98159.25;;;19.75;61.44
15604;BME280;7902;49.042;9.092;2023-08-06T04:25:41;98151.97;;;19.62;61.43
15604;BME280;7902;49.042;9.092;2023-08-06T04:28:07;98159.56;;;19.65;61.46
15604;BME280;7902;49.042;9.092;2023-08-06T04:30:33;98163.63;;;19.61;61.33
15604;BME280;7902;49.042;9.092;2023-08-06T04:32:59;98160.81;;;19.69;61.50
15604;BME280;7902;49.042;9.092;2023-08-06T04:35:25;98156.13;;;19.71;60.90
15604;BME280;7902;49.042;9.092;2023-08-06T04:37:51;98157.72;;;19.66;60.75
15604;BME280;7902;49.042;9.092;2023-08-06T04:40:17;98159.28;;;19.54;61.64
15604;BME280;7902;49.042;9.092;2023-08-06T04:42:43;98160.22;;;19.67;60.95
15604;BME280;7902;49.042;9.092;2023-08-06T04:45:09;98149.47;;;19.61;60.76
15604;BME280;7902;49.042;9.092;2023-08-06T04:47:35;98156.22;;;19.57;61.42
15604;BME280;7902;49.042;9.092;2023-08-06T04:50:01;98155.25;;;19.64;60.94
15604;BME280;7902;49.042;9.092;2023-08-06T04:52:27;98156.03;;;19.58;61.14
15604;BME280;7902;49.042;9.092;2023-08-06T04:54:54;98162.88;;;19.46;61.66
15604;BME280;7902;49.042;9.092;2023-08-06T04:57:20;98157.47;;;19.40;61.35
15604;BME280;7902;49.042;9.092;2023-08-06T04:59:46;98153.59;;;19.63;60.99
15604;BME280;7902;49.042;9.092;2023-08-06T05:02:12;98155.38;;;19.35;61.82
15604;BME280;7902;49.042;9.092;2023-08-06T05:04:38;98154.34;;;19.36;61.26
15604;BME280;7902;49.042;9.092;2023-08-06T05:07:05;98153.31;;;19.37;61.37
15604;BME280;7902;49.042;9.092;2023-08-06T05:09:31;98157.63;;;19.38;62.02
15604;BME280;7902;49.042;9.092;2023-08-06T05:11:57;98153.25;;;19.30;62.22
15604;BME280;7902;49.042;9.092;2023-08-06T05:14:23;98153.31;;;19.37;62.19
15604;BME280;7902;49.042;9.092;2023-08-06T05:16:49;98150.13;;;19.06;62.28
15604;BME280;7902;49.042;9.092;2023-08-06T05:19:15;98156.38;;;19.34;61.42
15604;BME280;7902;49.042;9.092;2023-08-06T05:21:40;98149.00;;;19.36;61.71
15604;BME280;7902;49.042;9.092;2023-08-06T05:24:06;98158.38;;;19.47;61.66
15604;BME280;7902;49.042;9.092;2023-08-06T05:26:32;98145.88;;;19.47;61.75
15604;BME280;7902;49.042;9.092;2023-08-06T05:28:58;98152.66;;;19.50;61.15
15604;BME280;7902;49.042;9.092;2023-08-06T05:31:24;98151.22;;;19.33;61.79
15604;BME280;7902;49.042;9.092;2023-08-06T05:33:50;98161.03;;;19.47;61.81
15604;BME280;7902;49.042;9.092;2023-08-06T05:36:16;98158.69;;;19.58;61.65
15604;BME280;7902;49.042;9.092;2023-08-06T05:38:43;98171.22;;;19.64;61.47
15604;BME280;7902;49.042;9.092;2023-08-06T05:41:09;98175.00;;;19.49;62.36
15604;BME280;7902;49.042;9.092;2023-08-06T05:43:35;98163.28;;;19.28;62.67
15604;BME280;7902;49.042;9.092;2023-08-06T05:46:01;98163.97;;;19.37;62.18
15604;BME280;7902;49.042;9.092;2023-08-06T05:48:26;98156.41;;;19.55;62.24
15604;BME280;7902;49.042;9.092;2023-08-06T05:50:53;98163.97;;;19.37;62.93
15604;BME280;7902;49.042;9.092;2023-08-06T05:53:19;98159.78;;;19.28;63.38
15604;BME280;7902;49.042;9.092;2023-08-06T05:55:45;98166.00;;;19.35;62.92
15604;BME280;7902;49.042;9.092;2023-08-06T05:58:11;98166.91;;;19.42;63.22
15604;BME280;7902;49.042;9.092;2023-08-06T06:00:37;98158.81;;;19.50;62.32
15604;BME280;7902;49.042;9.092;2023-08-06T06:03:03;98151.53;;;19.23;62.75
15604;BME280;7902;49.042;9.092;2023-08-06T06:05:28;98157.25;;;19.20;62.60
15604;BME280;7902;49.042;9.092;2023-08-06T06:07:54;98163.13;;;19.51;62.45
15604;BME280;7902;49.042;9.092;2023-08-06T06:10:20;98160.16;;;19.25;62.94
15604;BME280;7902;49.042;9.092;2023-08-06T06:12:46;98165.75;;;19.30;62.77
15604;BME280;7902;49.042;9.092;2023-08-06T06:15:12;98160.44;;;19.51;62.13
15604;BME280;7902;49.042;9.092;2023-08-06T06:17:38;98159.69;;;19.57;62.45
15604;BME280;7902;49.042;9.092;2023-08-06T06:20:04;98165.16;;;19.70;61.99
15604;BME280;7902;49.042;9.092;2023-08-06T06:22:32;98173.88;;;19.43;62.65
15604;BME280;7902;49.042;9.092;2023-08-06T06:24:58;98165.03;;;19.57;61.84
15604;BME280;7902;49.042;9.092;2023-08-06T06:27:24;98170.84;;;19.46;63.09
15604;BME280;7902;49.042;9.092;2023-08-06T06:29:50;98173.28;;;19.62;62.59
15604;BME280;7902;49.042;9.092;2023-08-06T06:32:18;98171.53;;;19.55;62.56
15604;BME280;7902;49.042;9.092;2023-08-06T06:34:43;98178.22;;;19.65;62.33
15604;BME280;7902;49.042;9.092;2023-08-06T06:37:09;98186.25;;;19.51;63.05
15604;BME280;7902;49.042;9.092;2023-08-06T06:39:35;98185.16;;;19.45;63.68
15604;BME280;7902;49.042;9.092;2023-08-06T06:42:01;98180.94;;;19.51;63.22
15604;BME280;7902;49.042;9.092;2023-08-06T06:44:27;98185.66;;;19.34;63.55
15604;BME280;7902;49.042;9.092;2023-08-06T06:46:53;98185.53;;;19.63;62.72
15604;BME280;7902;49.042;9.092;2023-08-06T06:49:19;98186.94;;;19.59;63.76
15604;BME280;7902;49.042;9.092;2023-08-06T06:51:45;98183.03;;;19.55;63.12
15604;BME280;7902;49.042;9.092;2023-08-06T06:54:11;98198.38;;;19.53;63.15
15604;BME280;7902;49.042;9.092;2023-08-06T06:56:37;98188.69;;;19.67;63.12
15604;BME280;7902;49.042;9.092;2023-08-06T06:59:03;98187.09;;;19.51;63.48
15604;BME280;7902;49.042;9.092;2023-08-06T07:01:29;98185.91;;;19.39;63.33
15604;BME280;7902;49.042;9.092;2023-08-06T07:03:55;98193.69;;;19.55;62.93
15604;BME280;7902;49.042;9.092;2023-08-06T07:06:20;98190.78;;;19.36;63.54
15604;BME280;7902;49.042;9.092;2023-08-06T07:08:46;98199.97;;;19.48;62.88
15604;BME280;7902;49.042;9.092;2023-08-06T07:11:12;98187.63;;;19.25;63.55
15604;BME280;7902;49.042;9.092;2023-08-06T07:13:38;98190.66;;;19.58;63.38
15604;BME280;7902;49.042;9.092;2023-08-06T07:16:04;98198.25;;;19.61;62.92
15604;BME280;7902;49.042;9.092;2023-08-06T07:18:30;98199.13;;;19.68;62.46
15604;BME280;7902;49.042;9.092;2023-08-06T07:20:56;98191.06;;;19.83;62.55
15604;BME280;7902;49.042;9.092;2023-08-06T07:23:24;98204.16;;;19.57;62.86
15604;BME280;7902;49.042;9.092;2023-08-06T07:25:50;98199.31;;;19.46;63.34
15604;BME280;7902;49.042;9.092;2023-08-06T07:28:16;98194.94;;;19.59;63.29
15604;BME280;7902;49.042;9.092;2023-08-06T07:30:43;98194.94;;;19.59;62.75
15604;BME280;7902;49.042;9.092;2023-08-06T07:33:10;98193.75;;;19.62;62.61
15604;BME280;7902;49.042;9.092;2023-08-06T07:35:36;98189.47;;;19.46;62.71
15604;BME280;7902;49.042;9.092;2023-08-06T07:38:02;98184.28;;;19.59;62.10
15604;BME280;7902;49.042;9.092;2023-08-06T07:40:28;98189.75;;;19.51;62.45
15604;BME280;7902;49.042;9.092;2023-08-06T07:42:54;98186.94;;;19.81;62.07
15604;BME280;7902;49.042;9.092;2023-08-06T07:45:20;98197.25;;;19.62;62.06
15604;BME280;7902;49.042;9.092;2023-08-06T07:47:46;98187.22;;;19.86;61.88
15604;BME280;7902;49.042;9.092;2023-08-06T07:50:13;98177.44;;;19.71;61.72
15604;BME280;7902;49.042;9.092;2023-08-06T07:52:39;98185.19;;;19.66;61.79
15604;BME280;7902;49.042;9.092;2023-08-06T07:55:05;98185.69;;;19.55;62.65
15604;BME280;7902;49.042;9.092;2023-08-06T07:57:31;98184.88;;;19.76;61.51
15604;BME280;7902;49.042;9.092;2023-08-06T07:59:58;98186.31;;;19.79;62.02
15604;BME280;7902;49.042;9.092;2023-08-06T08:02:24;98189.03;;;19.85;61.52
15604;BME280;7902;49.042;9.092;2023-08-06T08:04:50;98180.72;;;19.73;61.69
15604;BME280;7902;49.042;9.092;2023-08-06T08:07:16;98180.47;;;19.90;61.72
15604;BME280;7902;49.042;9.092;2023-08-06T08:09:42;98182.16;;;19.97;61.37
15604;BME280;7902;49.042;9.092;2023-08-06T08:12:08;98179.31;;;19.78;61.88
15604;BME280;7902;49.042;9.092;2023-08-06T08:14:33;98180.53;;;19.96;61.85
15604;BME280;7902;49.042;9.092;2023-08-06T08:17:02;98189.38;;;19.76;61.50
15604;BME280;7902;49.042;9.092;2023-08-06T08:19:29;98171.72;;;19.96;60.71
15604;BME280;7902;49.042;9.092;2023-08-06T08:21:55;98172.13;;;19.71;61.47
15604;BME280;7902;49.042;9.092;2023-08-06T08:24:21;98169.66;;;19.98;61.17
15604;BME280;7902;49.042;9.092;2023-08-06T08:26:53;98175.88;;;20.05;60.90
15604;BME280;7902;49.042;9.092;2023-08-06T08:29:19;98168.75;;;20.12;60.68
15604;BME280;7902;49.042;9.092;2023-08-06T08:31:46;98178.06;;;19.95;61.12
15604;BME280;7902;49.042;9.092;2023-08-06T08:34:15;98176.00;;;20.25;60.62
15604;BME280;7902;49.042;9.092;2023-08-06T08:36:41;98181.47;;;20.10;60.82
15604;BME280;7902;49.042;9.092;2023-08-06T08:39:07;98181.47;;;20.10;60.55
15604;BME280;7902;49.042;9.092;2023-08-06T08:41:36;98178.13;;;20.29;60.50
15604;BME280;7902;49.042;9.092;2023-08-06T08:44:02;98180.81;;;20.08;60.56
15604;BME280;7902;49.042;9.092;2023-08-06T08:46:31;98190.91;;;20.40;60.27
15604;BME280;7902;49.042;9.092;2023-08-06T08:48:59;98187.66;;;20.17;61.34
15604;BME280;7902;49.042;9.092;2023-08-06T08:51:27;98179.03;;;20.15;60.80
15604;BME280;7902;49.042;9.092;2023-08-06T08:53:53;98173.78;;;20.28;60.13
15604;BME280;7902;49.042;9.092;2023-08-06T08:56:23;98187.00;;;20.36;60.52
15604;BME280;7902;49.042;9.092;2023-08-06T08:58:50;98185.59;;;20.40;60.23
15604;BME280;7902;49.042;9.092;2023-08-06T09:01:19;98181.25;;;20.33;60.07
15604;BME280;7902;49.042;9.092;2023-08-06T09:03:46;98181.56;;;20.30;60.12
15604;BME280;7902;49.042;9.092;2023-08-06T09:06:13;98178.47;;;20.54;60.34
15604;BME280;7902;49.042;9.092;2023-08-06T09:08:45;98192.38;;;20.43;60.92
15604;BME280;7902;49.042;9.092;2023-08-06T09:11:12;98193.97;;;20.37;62.62
15604;BME280;7902;49.042;9.092;2023-08-06T09:13:38;98183.06;;;20.32;62.20
15604;BME280;7902;49.042;9.092;2023-08-06T09:16:04;98181.50;;;20.44;62.41
15604;BME280;7902;49.042;9.092;2023-08-06T09:18:31;98176.22;;;20.23;62.48
15604;BME280;7902;49.042;9.092;2023-08-06T09:20:57;98187.91;;;20.22;62.65
15604;BME280;7902;49.042;9.092;2023-08-06T09:23:31;98184.38;;;20.15;62.54
15604;BME280;7902;49.042;9.092;2023-08-06T09:25:57;98188.13;;;20.27;61.40
15604;BME280;7902;49.042;9.092;2023-08-06T09:28:23;98191.75;;;20.41;62.00
15604;BME280;7902;49.042;9.092;2023-08-06T09:30:50;98176.56;;;20.41;61.24
15604;BME280;7902;49.042;9.092;2023-08-06T09:33:19;98180.09;;;20.48;61.02
15604;BME280;7902;49.042;9.092;2023-08-06T09:35:46;98181.59;;;20.57;60.96
15604;BME280;7902;49.042;9.092;2023-08-06T09:38:12;98181.44;;;20.72;60.44
15604;BME280;7902;49.042;9.092;2023-08-06T09:40:39;98177.53;;;20.68;60.88
15604;BME280;7902;49.042;9.092;2023-08-06T09:43:05;98172.53;;;20.52;61.17
15604;BME280;7902;49.042;9.092;2023-08-06T09:45:36;98185.91;;;20.58;60.69
15604;BME280;7902;49.042;9.092;2023-08-06T09:48:06;98187.00;;;20.77;60.06
15604;BME280;7902;49.042;9.092;2023-08-06T09:50:36;98195.31;;;20.54;60.60
15604;BME280;7902;49.042;9.092;2023-08-06T09:53:04;98190.72;;;20.76;60.81
15604;BME280;7902;49.042;9.092;2023-08-06T09:55:32;98185.53;;;20.68;61.00
15604;BME280;7902;49.042;9.092;2023-08-06T09:57:58;98187.22;;;20.76;60.62
15604;BME280;7902;49.042;9.092;2023-08-06T10:00:25;98180.84;;;20.70;60.56
15604;BME280;7902;49.042;9.092;2023-08-06T10:02:53;98191.97;;;20.46;60.42
15604;BME280;7902;49.042;9.092;2023-08-06T10:05:22;98187.16;;;20.63;60.75
15604;BME280;7902;49.042;9.092;2023-08-06T10:07:49;98193.63;;;20.88;60.61
15604;BME280;7902;49.042;9.092;2023-08-06T10:10:19;98201.75;;;20.67;60.80
15604;BME280;7902;49.042;9.092;2023-08-06T10:12:49;98201.34;;;20.70;60.25
15604;BME280;7902;49.042;9.092;2023-08-06T10:15:20;98195.06;;;20.84;59.82
15604;BME280;7902;49.042;9.092;2023-08-06T10:17:50;98192.94;;;20.66;59.83
15604;BME280;7902;49.042;9.092;2023-08-06T10:20:17;98203.00;;;20.71;60.10
15604;BME280;7902;49.042;9.092;2023-08-06T10:22:44;98204.31;;;20.88;59.60
15604;BME280;7902;49.042;9.092;2023-08-06T10:25:16;98203.44;;;20.74;59.89
15604;BME280;7902;49.042;9.092;2023-08-06T10:30:21;98202.69;;;20.52;60.74
15604;BME280;7902;49.042;9.092;2023-08-06T10:32:49;98207.88;;;20.61;60.89
15604;BME280;7902;49.042;9.092;2023-08-06T10:35:28;98205.84;;;20.35;61.05
15604;BME280;7902;49.042;9.092;2023-08-06T10:38:02;98196.88;;;20.42;60.58
15604;BME280;7902;49.042;9.092;2023-08-06T10:40:29;98218.09;;;20.29;60.71
15604;BME280;7902;49.042;9.092;2023-08-06T10:43:03;98209.22;;;20.43;60.71
15604;BME280;7902;49.042;9.092;2023-08-06T10:45:30;98212.66;;;20.44;60.41
15604;BME280;7902;49.042;9.092;2023-08-06T10:47:59;98218.34;;;20.62;59.59
15604;BME280;7902;49.042;9.092;2023-08-06T10:50:25;98216.03;;;20.52;60.05
15604;BME280;7902;49.042;9.092;2023-08-06T10:52:52;98235.19;;;20.13;60.66
15604;BME280;7902;49.042;9.092;2023-08-06T10:55:25;98233.09;;;20.30;60.47
15604;BME280;7902;49.042;9.092;2023-08-06T10:57:52;98233.94;;;20.09;60.62
15604;BME280;7902;49.042;9.092;2023-08-06T11:00:21;98225.16;;;20.15;60.34
15604;BME280;7902;49.042;9.092;2023-08-06T11:02:48;98236.50;;;20.45;59.88
15604;BME280;7902;49.042;9.092;2023-08-06T11:05:17;98237.22;;;20.11;60.53
15604;BME280;7902;49.042;9.092;2023-08-06T11:07:43;98243.56;;;20.32;59.86
15604;BME280;7902;49.042;9.092;2023-08-06T11:10:11;98237.78;;;20.07;60.00
15604;BME280;7902;49.042;9.092;2023-08-06T11:12:37;98241.91;;;20.31;59.79
15604;BME280;7902;49.042;9.092;2023-08-06T11:15:04;98246.34;;;20.24;59.95
15604;BME280;7902;49.042;9.092;2023-08-06T11:17:32;98243.81;;;20.15;60.50
15604;BME280;7902;49.042;9.092;2023-08-06T11:20:00;98249.84;;;20.03;61.20
15604;BME280;7902;49.042;9.092;2023-08-06T11:22:26;98247.22;;;19.82;61.58
15604;BME280;7902;49.042;9.092;2023-08-06T11:24:53;98241.09;;;19.88;61.51
15604;BME280;7902;49.042;9.092;2023-08-06T11:27:19;98239.88;;;20.11;61.22
15604;BME280;7902;49.042;9.092;2023-08-06T11:29:45;98243.16;;;19.86;62.08
15604;BME280;7902;49.042;9.092;2023-08-06T11:32:11;98259.88;;;19.80;62.45
15604;BME280;7902;49.042;9.092;2023-08-06T11:34:39;98245.28;;;19.97;61.95
15604;BME280;7902;49.042;9.092;2023-08-06T11:37:05;98252.97;;;19.85;62.42
15604;BME280;7902;49.042;9.092;2023-08-06T11:39:33;98257.03;;;19.81;62.64
15604;BME280;7902;49.042;9.092;2023-08-06T11:41:59;98264.09;;;19.67;63.29
15604;BME280;7902;49.042;9.092;2023-08-06T11:44:30;98256.53;;;19.71;62.87
15604;BME280;7902;49.042;9.092;2023-08-06T11:46:57;98272.81;;;19.61;62.71
15604;BME280;7902;49.042;9.092;2023-08-06T11:49:47;98277.16;;;19.48;64.15
15604;BME280;7902;49.042;9.092;2023-08-06T11:58:58;98282.88;;;19.15;64.66
15604;BME280;7902;49.042;9.092;2023-08-06T12:01:23;98282.84;;;19.45;63.66
15604;BME280;7902;49.042;9.092;2023-08-06T12:03:51;98287.38;;;19.29;63.79
15604;BME280;7902;49.042;9.092;2023-08-06T12:06:17;98284.84;;;19.07;64.50
15604;BME280;7902;49.042;9.092;2023-08-06T12:08:43;98295.81;;;19.04;64.65
15604;BME280;7902;49.042;9.092;2023-08-06T12:11:08;98291.97;;;18.92;65.14
15604;BME280;7902;49.042;9.092;2023-08-06T12:13:34;98290.50;;;19.04;64.82
15604;BME280;7902;49.042;9.092;2023-08-06T12:16:00;98293.34;;;18.73;65.50
15604;BME280;7902;49.042;9.092;2023-08-06T12:18:26;98304.81;;;19.03;64.92
15604;BME280;7902;49.042;9.092;2023-08-06T12:20:52;98302.50;;;18.85;65.23
15604;BME280;7902;49.042;9.092;2023-08-06T12:23:18;98313.34;;;18.98;65.22
15604;BME280;7902;49.042;9.092;2023-08-06T12:25:44;98329.78;;;18.87;64.79
15604;BME280;7902;49.042;9.092;2023-08-06T12:28:10;98331.22;;;18.90;65.65
15604;BME280;7902;49.042;9.092;2023-08-06T12:30:37;98326.19;;;18.80;64.83
15604;BME280;7902;49.042;9.092;2023-08-06T12:33:07;98334.84;;;19.11;64.46
15604;BME280;7902;49.042;9.092;2023-08-06T12:35:32;98323.22;;;18.75;64.79
15604;BME280;7902;49.042;9.092;2023-08-06T12:37:58;98326.38;;;18.78;65.87
15604;BME280;7902;49.042;9.092;2023-08-06T12:40:26;98342.06;;;18.73;65.18
15604;BME280;7902;49.042;9.092;2023-08-06T12:42:53;98342.13;;;18.80;65.26
15604;BME280;7902;49.042;9.092;2023-08-06T12:45:18;98340.31;;;18.95;64.88
15604;BME280;7902;49.042;9.092;2023-08-06T12:47:46;98355.81;;;18.92;65.23
15604;BME280;7902;49.042;9.092;2023-08-06T12:50:13;98357.50;;;18.93;64.44
15604;BME280;7902;49.042;9.092;2023-08-06T12:52:39;98361.22;;;18.83;65.16
15604;BME280;7902;49.042;9.092;2023-08-06T12:55:05;98367.66;;;19.04;64.45
15604;BME280;7902;49.042;9.092;2023-08-06T12:57:30;98366.94;;;19.24;64.22
15604;BME280;7902;49.042;9.092;2023-08-06T12:59:56;98369.31;;;19.05;64.56
15604;BME280;7902;49.042;9.092;2023-08-06T13:02:22;98377.69;;;19.02;64.29
15604;BME280;7902;49.042;9.092;2023-08-06T13:04:48;98375.47;;;19.20;64.21
15604;BME280;7902;49.042;9.092;2023-08-06T13:07:14;98382.09;;;19.24;64.15
15604;BME280;7902;49.042;9.092;2023-08-06T13:09:40;98382.19;;;19.45;63.61
15604;BME280;7902;49.042;9.092;2023-08-06T13:12:06;98381.28;;;19.53;63.96
15604;BME280;7902;49.042;9.092;2023-08-06T13:14:32;98385.38;;;19.26;64.47
15604;BME280;7902;49.042;9.092;2023-08-06T13:16:58;98380.44;;;19.23;64.10
15604;BME280;7902;49.042;9.092;2023-08-06T13:19:24;98389.63;;;19.35;64.18
15604;BME280;7902;49.042;9.092;2023-08-06T13:24:15;98401.38;;;19.55;63.73
15604;BME280;7902;49.042;9.092;2023-08-06T13:26:41;98409.06;;;19.36;64.23